createdAt,value
2023-01-13T00:00:30.543Z,86.65
2023-01-13T00:03:18.715Z,86.79
2023-01-13T00:05:46.745Z,86.74
2023-01-13T00:08:14.743Z,86.67
2023-01-13T00:10:46.496Z,86.86
2023-01-13T00:13:15.106Z,86.78
2023-01-13T00:15:43.363Z,86.71
2023-01-13T00:18:11.390Z,86.74
2023-01-13T00:20:39.382Z,86.77
2023-01-13T00:23:07.385Z,86.78
2023-01-13T00:25:35.465Z,86.72
2023-01-13T00:28:03.633Z,86.70
2023-01-13T00:30:31.609Z,86.66
2023-01-13T00:32:59.853Z,86.75
2023-01-13T00:35:27.881Z,86.52
2023-01-13T00:37:55.962Z,86.59
2023-01-13T00:40:24.049Z,86.46
2023-01-13T00:43:10.958Z,86.51
2023-01-13T00:45:39.187Z,86.52
2023-01-13T00:48:07.354Z,86.59
2023-01-13T00:50:35.810Z,86.59
2023-01-13T00:53:04.088Z,86.58
2023-01-13T00:55:33.123Z,86.55
2023-01-13T00:58:03.814Z,86.58
2023-01-13T01:00:35.037Z,86.64
2023-01-13T01:03:03.156Z,86.73
2023-01-13T01:05:33.452Z,86.73
2023-01-13T01:08:01.870Z,86.82
2023-01-13T01:10:30.018Z,86.87
2023-01-13T01:12:58.075Z,87.04
2023-01-13T01:15:26.837Z,87.06
2023-01-13T01:17:54.925Z,87.20
2023-01-13T01:20:23.046Z,87.06
2023-01-13T01:22:51.200Z,87.19
2023-01-13T01:25:19.450Z,87.22
2023-01-13T01:27:47.375Z,87.32
2023-01-13T01:30:15.870Z,87.46
2023-01-13T01:32:43.975Z,87.56
2023-01-13T01:35:12.019Z,87.68
2023-01-13T01:37:40.321Z,87.67
2023-01-13T01:40:09.078Z,87.67
2023-01-13T01:42:56.011Z,87.69
2023-01-13T01:45:25.151Z,87.63
2023-01-13T01:47:56.564Z,87.56
2023-01-13T01:50:24.903Z,87.70
2023-01-13T01:52:56.476Z,87.60
2023-01-13T01:55:28.019Z,87.62
2023-01-13T01:58:04.804Z,87.64
2023-01-13T02:05:19.872Z,87.64
2023-01-13T02:07:49.810Z,87.68
2023-01-13T02:10:19.812Z,87.63
2023-01-13T02:12:48.908Z,87.55
2023-01-13T02:15:18.983Z,87.73
2023-01-13T02:17:50.171Z,87.80
2023-01-13T02:20:24.248Z,87.86
2023-01-13T02:22:58.337Z,87.93
2023-01-13T02:25:49.076Z,88.10
2023-01-13T02:28:31.859Z,88.20
2023-01-13T02:31:21.975Z,88.28
2023-01-13T02:34:15.158Z,88.53
2023-01-13T02:36:55.962Z,88.62
2023-01-13T02:39:24.413Z,88.78
2023-01-13T02:42:37.356Z,88.89
2023-01-13T02:45:10.564Z,88.88
2023-01-13T02:47:39.679Z,89.11
2023-01-13T02:50:11.035Z,89.34
2023-01-13T02:52:48.993Z,89.37
2023-01-13T02:55:19.203Z,89.55
2023-01-13T02:57:48.553Z,89.75
2023-01-13T03:00:17.023Z,89.83
2023-01-13T03:02:45.201Z,89.84
2023-01-13T03:05:15.136Z,90.05
2023-01-13T03:07:49.241Z,90.15
2023-01-13T03:10:17.255Z,90.10
2023-01-13T03:12:59.844Z,90.23
2023-01-13T03:15:30.697Z,90.36
2023-01-13T03:18:22.000Z,90.45
2023-01-13T03:20:56.584Z,90.51
2023-01-13T03:23:38.200Z,90.65
2023-01-13T03:26:15.196Z,90.64
2023-01-13T03:28:49.223Z,90.76
2023-01-13T03:31:19.987Z,90.84
2023-01-13T03:33:57.718Z,90.87
2023-01-13T03:36:28.044Z,91.02
2023-01-13T03:39:03.183Z,91.02
2023-01-13T03:41:38.032Z,91.06
2023-01-13T03:44:24.535Z,90.94
2023-01-13T03:47:16.113Z,91.06
2023-01-13T03:49:53.017Z,91.04
2023-01-13T03:52:25.171Z,91.08
2023-01-13T03:54:59.853Z,91.26
2023-01-13T03:57:31.237Z,91.28
2023-01-13T04:00:00.509Z,91.30
2023-01-13T04:02:35.440Z,91.32
2023-01-13T04:05:06.823Z,91.19
2023-01-13T04:07:37.715Z,91.14
2023-01-13T04:10:07.841Z,91.16
2023-01-13T04:12:57.624Z,91.13
2023-01-13T04:15:28.157Z,91.22
2023-01-13T04:18:02.217Z,91.26
2023-01-13T04:20:30.740Z,91.02
2023-01-13T04:22:58.709Z,90.98
2023-01-13T04:25:26.597Z,90.97
2023-01-13T04:27:54.843Z,90.98
2023-01-13T04:30:22.748Z,90.87
2023-01-13T04:32:50.963Z,90.93
2023-01-13T04:35:19.185Z,91.04
2023-01-13T04:37:47.368Z,90.91
2023-01-13T04:40:15.687Z,90.89
2023-01-13T04:42:44.742Z,90.73
2023-01-13T04:45:12.758Z,90.82
2023-01-13T04:47:42.011Z,90.78
2023-01-13T04:50:10.460Z,90.60
2023-01-13T04:52:38.692Z,90.58
2023-01-13T04:55:07.320Z,90.49
2023-01-13T04:57:37.908Z,90.34
2023-01-13T05:00:06.547Z,90.34
2023-01-13T05:02:34.438Z,90.24
2023-01-13T05:05:02.607Z,90.18
2023-01-13T05:07:30.513Z,90.07
2023-01-13T05:09:58.523Z,90.06
2023-01-13T05:12:45.228Z,89.98
2023-01-13T05:15:33.065Z,89.87
2023-01-13T05:18:01.972Z,89.93
2023-01-13T05:20:29.912Z,89.79
2023-01-13T05:23:16.978Z,89.79
2023-01-13T05:25:47.059Z,89.62
2023-01-13T05:28:14.988Z,89.52
2023-01-13T05:30:44.352Z,89.50
2023-01-13T05:33:13.629Z,89.42
2023-01-13T05:35:42.789Z,89.47
2023-01-13T05:38:12.179Z,89.41
2023-01-13T05:40:59.872Z,89.46
2023-01-13T05:43:28.287Z,89.20
2023-01-13T05:46:04.886Z,89.05
2023-01-13T05:48:35.004Z,89.04
2023-01-13T05:51:04.667Z,88.93
2023-01-13T05:53:32.631Z,88.83
2023-01-13T05:56:00.692Z,88.75
2023-01-13T05:58:28.673Z,88.75
2023-01-13T06:01:06.141Z,88.57
2023-01-13T06:03:34.507Z,88.50
2023-01-13T06:06:04.085Z,88.23
2023-01-13T06:08:32.780Z,88.24
2023-01-13T06:11:01.032Z,88.05
2023-01-13T06:13:29.141Z,88.12
2023-01-13T06:16:00.904Z,87.99
2023-01-13T06:18:29.170Z,87.74
2023-01-13T06:20:57.064Z,87.65
2023-01-13T06:23:24.985Z,87.69
2023-01-13T06:25:55.772Z,87.48
2023-01-13T06:28:23.711Z,87.39
2023-01-13T06:30:56.068Z,87.38
2023-01-13T06:33:27.932Z,87.30
2023-01-13T06:35:58.584Z,87.20
2023-01-13T06:38:29.715Z,87.12
2023-01-13T06:40:58.497Z,87.12
2023-01-13T06:43:26.364Z,86.93
2023-01-13T06:45:55.412Z,86.82
2023-01-13T06:48:25.570Z,86.83
2023-01-13T06:50:53.796Z,86.79
2023-01-13T06:53:21.742Z,86.60
2023-01-13T06:55:49.725Z,86.67
2023-01-13T06:58:17.923Z,86.63
2023-01-13T07:00:51.472Z,86.72
2023-01-13T07:03:20.046Z,86.63
2023-01-13T07:05:52.406Z,86.78
2023-01-13T07:08:20.550Z,86.54
2023-01-13T07:10:48.691Z,86.51
2023-01-13T07:13:35.604Z,86.56
2023-01-13T07:16:05.722Z,86.60
2023-01-13T07:18:34.445Z,86.41
2023-01-13T07:21:04.012Z,86.39
2023-01-13T07:23:34.587Z,86.44
2023-01-13T07:26:02.506Z,86.40
2023-01-13T07:28:30.871Z,86.23
2023-01-13T07:30:58.794Z,86.39
2023-01-13T07:33:27.111Z,86.38
2023-01-13T07:35:58.973Z,86.29
2023-01-13T07:39:47.676Z,86.15
2023-01-13T07:42:34.852Z,86.23
2023-01-13T07:45:04.576Z,86.24
2023-01-13T07:47:32.887Z,86.13
2023-01-13T07:50:00.931Z,86.11
2023-01-13T07:52:29.029Z,86.10
2023-01-13T07:54:57.163Z,86.03
2023-01-13T07:57:25.225Z,85.88
2023-01-13T07:59:53.299Z,85.86
2023-01-13T08:02:21.870Z,85.98
2023-01-13T08:04:50.067Z,85.78
2023-01-13T08:07:18.199Z,85.93
2023-01-13T08:09:46.407Z,85.99
2023-01-13T08:12:32.987Z,85.77
2023-01-13T08:15:01.452Z,85.62
2023-01-13T08:17:29.579Z,85.47
2023-01-13T08:19:57.739Z,85.69
2023-01-13T08:22:25.899Z,85.48
2023-01-13T08:24:53.936Z,85.24
2023-01-13T08:27:22.166Z,85.33
2023-01-13T08:29:50.367Z,85.54
2023-01-13T08:32:18.438Z,85.39
2023-01-13T08:34:46.626Z,85.33
2023-01-13T08:37:14.928Z,85.28
2023-01-13T08:39:42.997Z,85.18
2023-01-13T08:42:11.272Z,85.39
2023-01-13T08:44:39.433Z,85.35
2023-01-13T08:47:07.551Z,85.11
2023-01-13T08:49:35.646Z,85.12
2023-01-13T08:52:04.836Z,85.16
2023-01-13T08:54:32.843Z,85.14
2023-01-13T08:57:03.519Z,84.99
2023-01-13T08:59:31.954Z,85.01
2023-01-13T09:02:00.649Z,85.03
2023-01-13T09:04:29.724Z,84.84
2023-01-13T09:06:57.900Z,84.78
2023-01-13T09:09:27.758Z,84.63
2023-01-13T09:12:14.741Z,84.35
2023-01-13T09:14:42.848Z,84.22
2023-01-13T09:17:11.316Z,84.09
2023-01-13T09:19:39.384Z,84.01
2023-01-13T09:22:08.059Z,83.81
2023-01-13T09:24:36.079Z,83.75
2023-01-13T09:27:04.342Z,83.64
2023-01-13T09:29:33.351Z,83.60
2023-01-13T09:32:01.407Z,83.62
2023-01-13T09:34:48.312Z,83.58
2023-01-13T09:37:16.771Z,83.48
2023-01-13T09:39:44.753Z,83.19
2023-01-13T09:42:58.022Z,83.03
2023-01-13T09:45:31.677Z,82.63
2023-01-13T09:48:16.814Z,82.59
2023-01-13T09:51:16.903Z,82.36
2023-01-13T09:53:55.843Z,82.44
2023-01-13T09:56:25.547Z,82.49
2023-01-13T09:58:53.638Z,82.43
2023-01-13T10:01:34.899Z,82.39
2023-01-13T10:04:10.388Z,82.11
2023-01-13T10:06:42.690Z,82.22
2023-01-13T10:09:30.436Z,82.05
2023-01-13T10:12:19.260Z,82.13
2023-01-13T10:14:54.531Z,81.82
2023-01-13T10:17:32.903Z,81.64
2023-01-13T10:20:18.625Z,81.88
2023-01-13T10:23:00.654Z,81.90
2023-01-13T10:25:47.520Z,81.72
2023-01-13T10:28:19.432Z,81.77
2023-01-13T10:30:48.091Z,81.79
2023-01-13T10:33:26.331Z,81.55
2023-01-13T10:36:03.744Z,81.04
2023-01-13T10:38:46.944Z,81.12
2023-01-13T10:41:15.296Z,80.89
2023-01-13T10:44:04.811Z,81.03
2023-01-13T10:46:35.949Z,80.87
2023-01-13T10:49:23.331Z,80.67
2023-01-13T10:51:51.762Z,80.51
2023-01-13T10:54:22.910Z,80.47
2023-01-13T10:57:10.908Z,80.29
2023-01-13T10:59:38.904Z,80.39
2023-01-13T11:02:26.835Z,80.50
2023-01-13T11:04:56.365Z,80.25
2023-01-13T11:07:31.940Z,80.32
2023-01-13T11:10:09.580Z,80.20
2023-01-13T11:13:16.091Z,80.30
2023-01-13T11:16:01.709Z,80.17
2023-01-13T11:19:12.089Z,80.04
2023-01-13T11:22:07.150Z,79.90
2023-01-13T11:24:51.437Z,79.68
2023-01-13T11:27:42.573Z,79.67
2023-01-13T11:30:26.325Z,79.88
2023-01-13T11:33:15.806Z,79.81
2023-01-13T11:35:59.261Z,79.69
2023-01-13T11:39:03.064Z,79.92
2023-01-13T11:41:43.583Z,79.70
2023-01-13T11:44:25.663Z,79.76
2023-01-13T11:46:53.936Z,79.70
2023-01-13T11:49:33.385Z,79.51
2023-01-13T11:52:14.346Z,79.82
2023-01-13T11:54:46.323Z,79.74
2023-01-13T11:57:26.486Z,79.71
2023-01-13T12:00:16.855Z,79.70
2023-01-13T12:02:57.191Z,79.63
2023-01-13T12:05:39.703Z,79.72
2023-01-13T12:08:17.196Z,79.60
2023-01-13T12:11:04.166Z,79.59
2023-01-13T12:13:45.428Z,79.73
2023-01-13T12:16:19.993Z,79.59
2023-01-13T12:19:02.684Z,79.80
2023-01-13T12:21:38.794Z,79.77
2023-01-13T12:24:28.429Z,79.82
2023-01-13T12:27:04.665Z,79.83
2023-01-13T12:29:38.586Z,79.73
2023-01-13T12:32:19.165Z,79.66
2023-01-13T12:34:50.173Z,79.94
2023-01-13T12:37:48.103Z,79.77
2023-01-13T12:40:34.315Z,79.80
2023-01-13T12:43:24.283Z,79.44
2023-01-13T12:45:52.775Z,79.34
2023-01-13T12:48:46.784Z,79.58
2023-01-13T12:51:29.136Z,79.54
2023-01-13T12:53:57.832Z,79.55
2023-01-13T12:56:38.346Z,79.49
2023-01-13T12:59:19.207Z,79.42
2023-01-13T13:02:10.992Z,79.25
2023-01-13T13:04:51.943Z,78.97
2023-01-13T13:07:41.830Z,79.04
2023-01-13T13:10:37.597Z,78.81
2023-01-13T13:13:40.104Z,78.50
2023-01-13T13:16:26.985Z,78.55
2023-01-13T13:19:18.185Z,78.49
2023-01-13T13:22:18.178Z,78.50
2023-01-13T13:24:49.336Z,78.70
2023-01-13T13:27:31.926Z,78.88
2023-01-13T13:30:31.240Z,78.90
2023-01-13T13:33:23.722Z,78.81
2023-01-13T13:36:36.607Z,79.16
2023-01-13T13:39:32.457Z,79.15
2023-01-13T13:42:31.297Z,79.16
2023-01-13T13:45:21.442Z,79.10
2023-01-13T13:47:49.843Z,79.22
2023-01-13T13:50:20.922Z,79.29
2023-01-13T13:52:59.217Z,79.29
2023-01-13T13:55:29.110Z,79.36
2023-01-13T13:57:59.221Z,79.54
2023-01-13T14:00:32.355Z,79.71
2023-01-13T14:03:03.276Z,79.95
2023-01-13T14:05:34.867Z,79.68
2023-01-13T14:08:16.825Z,79.70
2023-01-13T14:10:46.839Z,79.71
2023-01-13T14:13:19.884Z,79.91
2023-01-13T14:16:10.982Z,79.84
2023-01-13T14:18:47.469Z,79.78
2023-01-13T14:21:20.759Z,79.62
2023-01-13T14:24:10.703Z,79.75
2023-01-13T14:26:39.511Z,79.70
2023-01-13T14:29:14.691Z,79.79
2023-01-13T14:31:43.814Z,79.80
2023-01-13T14:34:31.926Z,79.71
2023-01-13T14:37:03.194Z,79.82
2023-01-13T14:39:40.994Z,79.96
2023-01-13T14:42:17.233Z,79.94
2023-01-13T14:44:47.845Z,79.93
2023-01-13T14:47:28.221Z,80.01
2023-01-13T14:50:16.465Z,80.07
2023-01-13T14:52:57.168Z,80.19
2023-01-13T14:55:33.959Z,80.03
2023-01-13T14:58:37.604Z,80.15
2023-01-13T15:01:36.417Z,80.16
2023-01-13T15:04:38.572Z,80.14
2023-01-13T15:07:23.127Z,80.19
2023-01-13T15:09:55.263Z,80.34
2023-01-13T15:12:37.915Z,80.24
2023-01-13T15:15:29.014Z,80.35
2023-01-13T15:17:57.276Z,80.31
2023-01-13T15:20:26.068Z,80.33
2023-01-13T15:22:55.747Z,80.36
2023-01-13T15:25:24.472Z,80.34
2023-01-13T15:27:53.157Z,80.42
2023-01-13T15:30:27.236Z,80.36
2023-01-13T15:32:57.128Z,80.37
2023-01-13T15:35:27.483Z,80.44
2023-01-13T15:37:56.941Z,80.42
2023-01-13T15:40:32.829Z,80.47
2023-01-13T15:43:19.436Z,80.20
2023-01-13T15:46:06.080Z,80.36
2023-01-13T15:48:35.786Z,80.42
2023-01-13T15:51:04.797Z,80.33
2023-01-13T15:53:36.937Z,80.49
2023-01-13T15:56:27.706Z,80.32
2023-01-13T15:58:56.098Z,80.36
2023-01-13T16:01:24.626Z,80.47
2023-01-13T16:03:52.899Z,80.53
2023-01-13T16:06:28.045Z,80.51
2023-01-13T16:08:56.889Z,80.53
2023-01-13T16:11:24.982Z,80.37
2023-01-13T16:13:53.143Z,80.38
2023-01-13T16:16:26.971Z,80.52
2023-01-13T16:18:55.869Z,80.40
2023-01-13T16:28:28.236Z,80.45
2023-01-13T16:30:56.511Z,80.54
2023-01-13T16:33:24.750Z,80.53
2023-01-13T16:36:10.366Z,80.66
2023-01-13T16:38:40.758Z,80.96
2023-01-13T16:41:09.924Z,81.37
2023-01-13T16:43:48.112Z,81.41
2023-01-13T16:46:24.100Z,81.76
2023-01-13T16:48:55.124Z,81.92
2023-01-13T16:51:23.956Z,82.16
2023-01-13T16:53:52.256Z,82.43
2023-01-13T16:56:24.898Z,82.56
2023-01-13T16:58:56.016Z,82.51
2023-01-13T17:01:32.756Z,82.80
2023-01-13T17:04:01.616Z,82.84
2023-01-13T17:06:42.458Z,82.97
2023-01-13T17:09:25.463Z,83.31
2023-01-13T17:11:54.569Z,83.29
2023-01-13T17:14:23.621Z,83.50
2023-01-13T17:16:54.708Z,83.78
2023-01-13T17:19:24.039Z,83.91
2023-01-13T17:21:52.235Z,84.06
2023-01-13T17:24:20.934Z,84.07
2023-01-13T17:26:50.960Z,84.27
2023-01-13T17:29:25.847Z,84.31
2023-01-13T17:31:54.609Z,84.41
2023-01-13T17:34:22.678Z,84.39
2023-01-13T17:36:50.974Z,84.40
2023-01-13T17:39:22.441Z,84.46
2023-01-13T17:41:51.956Z,84.47
2023-01-13T17:44:22.177Z,84.21
2023-01-13T17:46:50.531Z,84.34
2023-01-13T17:49:21.389Z,84.40
2023-01-13T17:51:51.535Z,84.61
2023-01-13T17:54:19.768Z,84.66
2023-01-13T17:56:48.054Z,84.72
2023-01-13T17:59:18.338Z,84.84
2023-01-13T18:01:46.696Z,84.79
2023-01-13T18:04:16.990Z,85.14
2023-01-13T18:06:45.673Z,85.16
2023-01-13T18:09:14.034Z,85.33
2023-01-13T18:11:42.731Z,85.65
2023-01-13T18:14:12.358Z,85.71
2023-01-13T18:16:40.522Z,85.77
2023-01-13T18:19:28.595Z,85.96
2023-01-13T18:22:15.791Z,86.20
2023-01-13T18:25:03.540Z,86.60
2023-01-13T18:27:36.457Z,86.90
2023-01-13T18:30:07.292Z,87.06
2023-01-13T18:32:35.885Z,87.27
2023-01-13T18:35:09.937Z,87.27
2023-01-13T18:37:40.628Z,87.37
2023-01-13T18:40:11.594Z,87.44
2023-01-13T18:42:54.237Z,87.42
2023-01-13T18:45:25.555Z,87.42
2023-01-13T18:47:55.419Z,87.53
2023-01-13T18:50:24.261Z,87.63
2023-01-13T18:52:52.648Z,87.65
2023-01-13T18:55:21.502Z,87.73
2023-01-13T18:57:50.374Z,87.93
2023-01-13T19:00:21.894Z,87.94
2023-01-13T19:05:35.935Z,88.18
2023-01-13T19:08:04.902Z,88.19
2023-01-13T19:10:33.181Z,88.30
2023-01-13T19:13:01.915Z,88.43
2023-01-13T19:15:30.521Z,88.47
2023-01-13T19:17:58.944Z,88.40
2023-01-13T19:20:27.345Z,88.66
2023-01-13T19:22:56.276Z,88.85
2023-01-13T19:25:24.389Z,88.82
2023-01-13T19:27:52.491Z,88.82
2023-01-13T19:30:21.089Z,89.07
2023-01-13T19:32:49.248Z,89.20
2023-01-13T19:35:18.083Z,89.08
2023-01-13T19:37:46.361Z,88.97
2023-01-13T19:40:14.521Z,89.07
2023-01-13T19:43:02.762Z,89.06
2023-01-13T19:45:33.636Z,89.06
2023-01-13T19:48:02.556Z,89.19
2023-01-13T19:50:31.022Z,89.39
2023-01-13T19:52:59.494Z,89.38
2023-01-13T19:55:28.188Z,89.44
2023-01-13T19:57:56.383Z,89.51
2023-01-13T20:00:24.943Z,89.69
2023-01-13T20:02:53.085Z,89.60
2023-01-13T20:05:25.363Z,89.61
2023-01-13T20:07:54.115Z,89.65
2023-01-13T20:10:23.139Z,89.72
2023-01-13T20:12:51.469Z,89.74
2023-01-13T20:15:19.895Z,89.64
2023-01-13T20:17:48.049Z,89.68
2023-01-13T20:20:18.648Z,89.65
2023-01-13T20:22:49.171Z,89.69
2023-01-13T20:25:18.752Z,89.67
2023-01-13T20:27:48.083Z,89.66
2023-01-13T20:30:16.407Z,89.42
2023-01-13T20:32:44.788Z,89.62
2023-01-13T20:35:12.864Z,89.74
2023-01-13T20:37:42.360Z,89.60
2023-01-13T20:40:15.981Z,89.45
2023-01-13T20:42:47.417Z,89.47
2023-01-13T20:45:20.383Z,89.34
2023-01-13T20:47:49.082Z,89.44
2023-01-13T20:50:17.512Z,89.40
2023-01-13T20:52:46.482Z,89.64
2023-01-13T20:55:15.117Z,89.61
2023-01-13T20:57:43.260Z,89.32
2023-01-13T21:00:13.339Z,89.21
2023-01-13T21:02:41.912Z,89.50
2023-01-13T21:05:10.254Z,89.55
2023-01-13T21:07:38.444Z,89.52
2023-01-13T21:10:06.859Z,89.77
2023-01-13T21:12:53.654Z,89.65
2023-01-13T21:15:22.849Z,89.63
2023-01-13T21:18:10.741Z,89.65
2023-01-13T21:20:39.950Z,89.57
2023-01-13T21:23:08.345Z,89.50
2023-01-13T21:25:39.752Z,89.63
2023-01-13T21:28:11.059Z,89.52
2023-01-13T21:30:39.418Z,89.51
2023-01-13T21:33:08.010Z,89.62
2023-01-13T21:35:39.607Z,89.63
2023-01-13T21:38:07.778Z,89.49
2023-01-13T21:40:36.013Z,89.61
2023-01-13T21:43:33.296Z,89.83
2023-01-13T21:46:19.799Z,89.92
2023-01-13T21:48:47.836Z,89.92
2023-01-13T21:51:15.859Z,90.10
2023-01-13T21:53:44.087Z,90.25
2023-01-13T21:56:12.588Z,90.14
2023-01-13T21:58:40.841Z,90.15
2023-01-13T22:01:10.167Z,90.09
2023-01-13T22:03:59.693Z,90.18
2023-01-13T22:06:28.261Z,90.25
2023-01-13T22:09:00.974Z,90.47
2023-01-13T22:11:29.044Z,90.67
2023-01-13T22:14:07.193Z,90.46
2023-01-13T22:16:42.096Z,90.72
2023-01-13T22:19:11.545Z,90.80
2023-01-13T22:21:40.267Z,90.68
2023-01-13T22:24:09.475Z,90.88
2023-01-13T22:26:37.648Z,90.74
2023-01-13T22:29:05.854Z,90.87
2023-01-13T22:31:34.161Z,90.82
2023-01-13T22:34:02.253Z,90.79
2023-01-13T22:36:30.336Z,90.57
2023-01-13T22:39:00.576Z,90.58
2023-01-13T22:41:29.021Z,90.61
2023-01-13T22:43:57.421Z,90.70
2023-01-13T22:46:25.516Z,90.70
2023-01-13T22:48:55.873Z,90.80
2023-01-13T22:51:24.130Z,90.59
2023-01-13T22:53:52.241Z,90.54
2023-01-13T22:56:22.701Z,90.55
2023-01-13T22:58:55.282Z,90.38
2023-01-13T23:01:24.364Z,90.44
2023-01-13T23:03:52.612Z,90.49
2023-01-13T23:06:23.271Z,90.37
2023-01-13T23:08:52.041Z,90.55
2023-01-13T23:11:23.492Z,90.50
2023-01-13T23:13:58.173Z,90.09
2023-01-13T23:16:27.957Z,90.18
2023-01-13T23:18:56.700Z,90.12
2023-01-13T23:21:30.995Z,90.30
2023-01-13T23:24:00.295Z,90.31
2023-01-13T23:26:29.514Z,90.53
2023-01-13T23:29:07.384Z,90.74
2023-01-13T23:31:35.495Z,90.55
2023-01-13T23:34:03.560Z,90.47
2023-01-13T23:36:32.225Z,90.59
2023-01-13T23:39:00.266Z,90.51
2023-01-13T23:41:28.651Z,90.59
2023-01-13T23:44:00.847Z,90.68
2023-01-13T23:46:31.289Z,90.59
2023-01-13T23:49:00.819Z,90.65
2023-01-13T23:51:30.214Z,90.84
2023-01-13T23:53:59.201Z,90.98
2023-01-13T23:56:29.852Z,91.02
2023-01-13T23:58:58.189Z,90.84
